createdAt,value
2022-11-16T00:02:55.214Z,17.246648
2022-11-16T00:07:57.111Z,16.82515
2022-11-16T00:12:59.211Z,16.828244
2022-11-16T00:18:03.014Z,17.005666
2022-11-16T00:23:05.118Z,17.29007
2022-11-16T00:28:06.900Z,17.099852
2022-11-16T00:33:08.851Z,17.039386
2022-11-16T00:38:10.796Z,17.179912
2022-11-16T00:43:12.686Z,17.455578
2022-11-16T00:48:14.723Z,17.11486
2022-11-16T00:53:16.723Z,16.958172
2022-11-16T00:58:18.628Z,16.687188
2022-11-16T01:03:20.675Z,16.90327
2022-11-16T01:08:22.552Z,17.018028
2022-11-16T01:13:24.319Z,16.828244
2022-11-16T01:18:26.190Z,16.544192
2022-11-16T01:23:28.155Z,15.405504
2022-11-16T01:28:30.083Z,15.76583
2022-11-16T01:33:31.997Z,16.37973
2022-11-16T01:38:34.475Z,16.105054
2022-11-16T01:43:36.423Z,16.80618
2022-11-16T01:48:38.401Z,16.173458
2022-11-16T01:53:40.488Z,16.158274
2022-11-16T01:58:42.217Z,15.84616
2022-11-16T02:03:44.200Z,15.5455
2022-11-16T02:08:45.715Z,16.337908
2022-11-16T02:13:47.387Z,16.084564
2022-11-16T02:18:48.900Z,15.4808
2022-11-16T02:23:50.530Z,16.307092
2022-11-16T02:28:52.315Z,15.988004
2022-11-16T02:33:55.179Z,15.41469
2022-11-16T02:38:56.947Z,15.662198
2022-11-16T02:43:58.871Z,15.602086
2022-11-16T02:49:00.307Z,14.871744
2022-11-16T02:54:02.021Z,14.674022
2022-11-16T02:59:03.623Z,14.839354
2022-11-16T03:04:05.417Z,14.547446
2022-11-16T03:09:07.185Z,14.495638
2022-11-16T03:14:08.649Z,15.330396
2022-11-16T03:19:10.268Z,14.820194
2022-11-16T03:24:11.799Z,14.899196
2022-11-16T03:29:13.539Z,15.09206
2022-11-16T03:34:15.260Z,15.421312
2022-11-16T03:39:16.746Z,14.820818
2022-11-16T03:44:18.636Z,15.352378
2022-11-16T03:49:20.664Z,15.777472
2022-11-16T03:54:22.196Z,15.174604
2022-11-16T03:59:23.645Z,15.70174
2022-11-16T04:04:25.410Z,16.177516
2022-11-16T04:09:26.945Z,15.84456
2022-11-16T04:14:28.657Z,15.696882
2022-11-16T04:19:30.106Z,16.112464
2022-11-16T04:24:31.695Z,16.045552
2022-11-16T04:29:33.290Z,17.099228
2022-11-16T04:34:35.123Z,16.94273
2022-11-16T04:39:36.838Z,17.971534
2022-11-16T04:44:38.366Z,18.503026
2022-11-16T04:49:39.824Z,19.256884
2022-11-16T04:54:41.463Z,20.418548
2022-11-16T04:59:43.403Z,20.454494
2022-11-16T05:04:45.165Z,20.445402
2022-11-16T05:09:46.756Z,20.596608
2022-11-16T05:14:48.223Z,21.624748
2022-11-16T05:19:50.024Z,21.844562
2022-11-16T05:24:51.939Z,22.105166
2022-11-16T05:29:53.746Z,21.311942
2022-11-16T05:34:55.819Z,22.692132
2022-11-16T05:39:57.825Z,22.515388
2022-11-16T05:44:59.676Z,23.011004
2022-11-16T05:50:01.481Z,22.99776
2022-11-16T05:55:03.540Z,23.072746
2022-11-16T06:00:05.586Z,23.563124
2022-11-16T06:05:07.588Z,23.547682
2022-11-16T06:10:09.428Z,23.884452
2022-11-16T06:15:11.251Z,24.01202
2022-11-16T06:20:12.721Z,23.573084
2022-11-16T06:25:14.550Z,23.488966
2022-11-16T06:30:16.333Z,25.63721
2022-11-16T06:35:18.591Z,24.980862
2022-11-16T06:40:20.409Z,25.223378
2022-11-16T06:45:22.377Z,25.222252
2022-11-16T06:50:24.175Z,26.206808
2022-11-16T06:55:26.141Z,25.077722
2022-11-16T07:00:28.207Z,25.614454
2022-11-16T07:05:30.227Z,26.905738
2022-11-16T07:10:32.234Z,26.512016
2022-11-16T07:15:33.654Z,26.760326
2022-11-16T07:20:35.406Z,26.533198
2022-11-16T07:25:37.083Z,26.578222
2022-11-16T07:30:38.725Z,27.064204
2022-11-16T07:35:40.454Z,25.934262
2022-11-16T07:40:42.192Z,26.741058
2022-11-16T07:45:43.697Z,27.715682
2022-11-16T07:50:45.482Z,28.043198
2022-11-16T07:55:47.302Z,27.877676
2022-11-16T08:00:49.023Z,27.450422
2022-11-16T08:05:50.963Z,27.479734
2022-11-16T08:10:52.945Z,27.86511
2022-11-16T08:15:55.042Z,27.53606
2022-11-16T08:20:56.898Z,28.239836
2022-11-16T08:25:58.750Z,29.065032
2022-11-16T08:31:00.672Z,28.899062
2022-11-16T08:36:02.671Z,29.158812
2022-11-16T08:41:05.025Z,29.790682
2022-11-16T08:46:07.087Z,28.82025
2022-11-16T08:51:18.594Z,28.662488
2022-11-16T08:56:22.119Z,29.285524
2022-11-16T09:01:24.008Z,29.375764
2022-11-16T09:06:26.090Z,30.200526
2022-11-16T09:11:28.044Z,29.772146
2022-11-16T09:16:30.515Z,29.27467
2022-11-16T09:21:32.511Z,30.569552
2022-11-16T09:26:34.104Z,29.935904
2022-11-16T09:31:37.005Z,30.587206
2022-11-16T09:36:38.620Z,30.023332
2022-11-16T09:41:40.187Z,30.038544
2022-11-16T09:46:41.902Z,29.975636
2022-11-16T09:51:43.397Z,30.214
2022-11-16T09:56:45.049Z,30.706184
2022-11-16T10:01:46.735Z,31.18621
2022-11-16T10:06:49.624Z,30.470006
2022-11-16T10:11:52.796Z,30.145582
2022-11-16T10:16:54.903Z,30.34952
2022-11-16T10:21:56.402Z,30.85404
2022-11-16T10:26:59.947Z,29.561586
2022-11-16T10:32:01.566Z,30.05818
2022-11-16T10:37:03.282Z,31.349318
2022-11-16T10:42:07.638Z,30.05377
2022-11-16T10:47:09.676Z,30.490792
2022-11-16T10:52:11.347Z,30.927098
2022-11-16T10:57:12.825Z,31.229458
2022-11-16T11:02:14.612Z,28.85648
2022-11-16T11:07:16.670Z,30.943666
2022-11-16T11:12:18.323Z,31.427438
2022-11-16T11:17:19.930Z,28.089104
2022-11-16T11:22:21.512Z,28.490318
2022-11-16T11:27:24.431Z,31.12288
2022-11-16T11:32:25.935Z,30.599364
2022-11-16T11:37:28.371Z,30.766216
2022-11-16T11:42:29.865Z,29.225492
2022-11-16T11:47:57.803Z,29.647684
2022-11-16T11:53:01.546Z,31.253976
2022-11-16T11:58:03.576Z,28.479312
2022-11-16T12:03:05.609Z,29.75274
2022-11-16T12:08:07.595Z,29.822258
2022-11-16T12:13:09.409Z,29.193482
2022-11-16T12:18:11.291Z,28.736212
2022-11-16T12:23:13.110Z,29.438698
2022-11-16T12:28:16.145Z,30.097464
2022-11-16T12:33:17.932Z,30.183562
2022-11-16T12:38:25.888Z,30.335394
2022-11-16T12:43:28.827Z,31.243392
2022-11-16T12:48:30.595Z,29.113354
2022-11-16T12:53:32.826Z,30.037458
2022-11-16T12:58:34.664Z,29.09042
2022-11-16T13:03:37.954Z,29.998174
2022-11-16T13:08:39.915Z,29.501798
2022-11-16T13:13:41.537Z,28.498256
2022-11-16T13:18:43.016Z,29.264098
2022-11-16T13:23:45.153Z,29.480168
2022-11-16T13:28:47.973Z,29.117112
2022-11-16T13:33:51.002Z,29.2895
2022-11-16T13:38:53.267Z,29.350618
2022-11-16T13:43:55.414Z,29.095048
2022-11-16T13:48:57.126Z,28.850292
2022-11-16T13:59:31.480Z,28.294806
2022-11-16T14:04:33.884Z,28.665134
2022-11-16T14:09:35.631Z,28.59825
2022-11-16T14:14:38.587Z,28.643478
2022-11-16T14:19:40.143Z,28.798646
2022-11-16T14:24:53.214Z,28.197688
2022-11-16T14:29:55.160Z,27.41468
2022-11-16T14:34:56.927Z,28.164618
2022-11-16T14:39:58.887Z,27.393458
2022-11-16T14:45:00.990Z,27.136802
2022-11-16T14:50:02.842Z,26.80839
2022-11-16T14:55:04.614Z,27.070582
2022-11-16T15:07:21.286Z,26.769554
2022-11-16T15:12:23.046Z,27.18667
2022-11-16T15:17:31.705Z,26.763176
2022-11-16T15:22:33.875Z,26.581112
2022-11-16T15:27:35.507Z,26.092932
2022-11-16T15:32:37.013Z,25.449176
2022-11-16T15:37:38.475Z,25.567666
2022-11-16T15:42:40.606Z,25.36575
2022-11-16T15:58:03.739Z,25.73122
2022-11-16T16:03:05.870Z,25.53457
2022-11-16T16:08:07.687Z,25.284102
2022-11-16T16:13:09.649Z,24.77497
2022-11-16T16:18:11.458Z,24.776504
2022-11-16T16:23:13.255Z,24.910232
2022-11-16T16:28:19.218Z,24.47435
2022-11-16T16:33:21.034Z,24.43398
2022-11-16T16:38:22.670Z,24.346198
2022-11-16T16:43:24.757Z,24.214858
2022-11-16T16:48:26.502Z,24.377082
2022-11-16T16:53:28.445Z,24.364246
2022-11-16T16:58:30.636Z,24.437562
2022-11-16T17:03:33.113Z,24.256978
2022-11-16T17:08:35.128Z,24.019564
2022-11-16T17:13:37.019Z,24.25634
2022-11-16T17:18:38.702Z,24.46002
2022-11-16T17:23:40.296Z,23.620062
2022-11-16T17:28:42.223Z,22.90086
2022-11-16T17:33:43.698Z,21.07613
2022-11-16T17:38:45.265Z,21.481684
2022-11-16T17:43:46.854Z,20.723036
2022-11-16T17:48:48.396Z,21.01295
2022-11-16T17:53:50.112Z,21.412778
2022-11-16T17:58:52.078Z,22.00011
2022-11-16T18:03:53.523Z,19.665138
2022-11-16T18:08:55.142Z,18.613008
2022-11-16T18:13:56.845Z,18.190696
2022-11-16T18:18:58.311Z,18.709664
2022-11-16T18:24:00.401Z,17.987424
2022-11-16T18:29:02.505Z,17.988482
2022-11-16T18:34:04.021Z,18.590048
2022-11-16T18:39:05.674Z,18.28225
2022-11-16T18:44:07.364Z,19.511612
2022-11-16T18:49:09.032Z,19.55384
2022-11-16T18:54:10.793Z,19.386826
2022-11-16T18:59:12.781Z,19.65146
2022-11-16T19:04:14.657Z,20.184378
2022-11-16T19:09:16.409Z,20.012872
2022-11-16T19:14:18.367Z,19.626492
2022-11-16T19:19:20.085Z,19.43645
2022-11-16T19:24:21.931Z,19.038848
2022-11-16T19:29:24.074Z,19.994336
2022-11-16T19:34:31.958Z,19.356186
2022-11-16T19:39:34.943Z,18.830894
2022-11-16T19:44:36.508Z,18.869798
2022-11-16T19:49:38.079Z,19.846536
2022-11-16T19:54:40.080Z,19.286886
2022-11-16T19:59:41.793Z,19.587208
2022-11-16T20:04:43.593Z,18.373532
2022-11-16T20:09:48.188Z,18.770062
2022-11-16T20:14:54.064Z,19.445528
2022-11-16T20:19:55.586Z,19.641744
2022-11-16T20:24:57.339Z,19.796668
2022-11-16T20:30:03.744Z,19.599122
2022-11-16T20:35:08.537Z,19.333606
2022-11-16T20:40:10.311Z,19.865072
2022-11-16T20:45:12.145Z,19.489222
2022-11-16T20:50:13.729Z,19.867732
2022-11-16T20:55:15.656Z,19.616084
2022-11-16T21:00:18.101Z,19.297918
2022-11-16T21:05:19.916Z,19.663564
2022-11-16T21:10:21.588Z,18.561294
2022-11-16T21:15:23.615Z,18.16741
2022-11-16T21:20:27.874Z,18.628382
2022-11-16T21:25:30.551Z,19.12359
2022-11-16T21:30:32.828Z,19.65013
2022-11-16T21:35:34.625Z,19.06577
2022-11-16T21:40:36.396Z,18.946778
2022-11-16T21:45:38.235Z,18.954988
2022-11-16T21:50:39.749Z,19.072826
2022-11-16T21:55:41.352Z,19.338532
2022-11-16T22:00:43.254Z,18.963306
2022-11-16T22:05:44.724Z,18.942192
2022-11-16T22:10:46.229Z,18.352974
2022-11-16T22:15:48.001Z,19.323076
2022-11-16T22:20:49.879Z,18.467718
2022-11-16T22:25:51.599Z,18.578948
2022-11-16T22:30:53.895Z,18.731918
2022-11-16T22:35:55.669Z,18.27043
2022-11-16T22:40:57.543Z,18.37459
2022-11-16T22:45:59.505Z,18.258082
2022-11-16T22:51:01.428Z,18.413874
2022-11-16T22:56:03.130Z,18.536204
2022-11-16T23:01:05.105Z,18.2886
2022-11-16T23:06:07.035Z,18.000138
2022-11-16T23:11:08.695Z,17.560362
2022-11-16T23:16:10.437Z,17.829148
2022-11-16T23:21:12.283Z,17.876384
2022-11-16T23:26:15.284Z,17.75096
2022-11-16T23:31:18.173Z,17.905246
2022-11-16T23:36:20.706Z,17.330942
2022-11-16T23:41:22.592Z,16.262516
2022-11-16T23:46:24.681Z,15.689908
2022-11-16T23:51:26.694Z,16.616478
2022-11-16T23:56:28.631Z,16.611986
